Time;durP1;ratioP1;P1;durP2;ratioP2;P2;SDS_P1;SDS_P2;PMS_P1;PMS_P2;Temp;Humidity;BMP_temperature;BMP_pressure;BME280_temperature;BME280_humidity;BME280_pressure;Samples;Min_cycle;Max_cycle;Signal;HPM_P1;HPM_P2
2022/12/05 00:01:30;;;;;;;18.43;11.77;;;9.80;59.40;;;;;;5032477;28;20189;-60
2022/12/05 00:03:59;;;;;;;18.00;10.83;;;9.70;59.40;;;;;;5047273;28;20267;-59
2022/12/05 00:06:27;;;;;;;20.13;12.77;;;9.70;59.60;;;;;;5039104;28;20473;-58
2022/12/05 00:08:54;;;;;;;20.80;12.40;;;9.70;59.40;;;;;;5040776;28;20534;-58
2022/12/05 00:11:25;;;;;;;18.53;11.47;;;9.60;59.50;;;;;;5038226;28;20969;-58
2022/12/05 00:13:53;;;;;;;17.90;11.10;;;9.30;59.80;;;;;;5039957;28;20443;-59
2022/12/05 00:16:21;;;;;;;20.70;11.50;;;9.20;60.70;;;;;;5033572;28;20432;-58
2022/12/05 00:18:50;;;;;;;20.07;11.47;;;9.20;60.70;;;;;;5044749;28;20906;-59
2022/12/05 00:21:21;;;;;;;20.90;11.87;;;9.20;60.80;;;;;;5047963;28;20459;-59
2022/12/05 00:23:47;;;;;;;17.23;10.70;;;9.30;60.70;;;;;;5029701;28;20472;-58
2022/12/05 00:26:14;;;;;;;17.33;11.57;;;9.20;60.20;;;;;;5045589;28;20848;-59
2022/12/05 00:28:39;;;;;;;21.20;11.73;;;9.20;60.40;;;;;;5034189;28;20531;-58
2022/12/05 00:31:08;;;;;;;20.63;12.33;;;9.30;60.40;;;;;;5045020;28;20581;-59
2022/12/05 00:33:34;;;;;;;18.37;12.37;;;9.30;60.30;;;;;;5043738;28;20200;-58
2022/12/05 00:36:09;;;;;;;18.50;10.90;;;9.40;60.00;;;;;;5042105;28;20437;-59
2022/12/05 00:38:35;;;;;;;21.17;9.83;;;9.50;59.70;;;;;;5044697;28;20651;-58
2022/12/05 00:41:03;;;;;;;19.77;11.27;;;9.60;59.50;;;;;;5037841;28;20538;-58
2022/12/05 00:43:29;;;;;;;19.70;12.33;;;9.60;59.60;;;;;;5032032;28;20462;-59
2022/12/05 00:45:54;;;;;;;18.07;10.57;;;9.60;59.60;;;;;;5050136;28;20478;-58
2022/12/05 00:48:22;;;;;;;18.10;11.63;;;9.60;59.40;;;;;;5055555;28;20214;-59
2022/12/05 00:50:48;;;;;;;16.43;11.23;;;9.70;59.40;;;;;;5057201;28;20279;-58
2022/12/05 00:53:13;;;;;;;19.73;12.60;;;9.60;59.20;;;;;;5036019;28;20527;-59
2022/12/05 00:55:39;;;;;;;17.23;11.20;;;9.60;59.20;;;;;;5052670;28;20288;-59
2022/12/05 00:58:05;;;;;;;19.50;11.33;;;9.70;59.00;;;;;;5045689;28;20634;-59
2022/12/05 01:00:30;;;;;;;16.57;11.37;;;9.80;58.70;;;;;;5040173;28;20684;-59
2022/12/05 01:02:56;;;;;;;21.53;11.67;;;9.90;58.70;;;;;;5033024;28;20193;-58
2022/12/05 01:05:21;;;;;;;19.33;12.30;;;9.90;58.70;;;;;;5050573;28;20231;-59
2022/12/05 01:07:47;;;;;;;18.93;11.50;;;9.90;58.90;;;;;;5045094;28;20181;-59
2022/12/05 01:10:13;;;;;;;16.50;10.43;;;9.90;59.10;;;;;;5030593;28;20193;-58
2022/12/05 01:12:38;;;;;;;18.80;13.20;;;9.90;59.30;;;;;;5047934;28;20192;-58
2022/12/05 01:15:04;;;;;;;16.97;11.43;;;9.90;59.30;;;;;;5031683;28;20631;-60
2022/12/05 01:17:30;;;;;;;19.10;11.60;;;9.90;59.00;;;;;;5037075;28;20238;-58
2022/12/05 01:19:55;;;;;;;14.50;11.00;;;9.80;58.90;;;;;;5033153;28;20439;-59
2022/12/05 01:22:21;;;;;;;15.80;10.83;;;9.80;58.90;;;;;;5047914;28;20265;-59
2022/12/05 01:24:46;;;;;;;14.80;10.23;;;9.80;58.80;;;;;;5035418;28;20220;-59
2022/12/05 01:27:13;;;;;;;15.53;10.13;;;9.70;59.10;;;;;;5042226;28;20672;-60
2022/12/05 01:29:39;;;;;;;15.53;10.77;;;9.70;59.00;;;;;;5036783;28;20474;-58
2022/12/05 01:32:04;;;;;;;17.20;10.30;;;9.50;59.00;;;;;;5042230;28;20694;-59
2022/12/05 01:34:30;;;;;;;14.83;10.70;;;9.60;59.00;;;;;;5038538;28;20193;-59
2022/12/05 01:36:56;;;;;;;15.70;10.40;;;9.50;59.10;;;;;;5045416;28;20276;-59
2022/12/05 01:39:21;;;;;;;16.63;10.63;;;9.50;59.00;;;;;;5035578;28;20670;-59
2022/12/05 01:41:49;;;;;;;14.40;9.90;;;9.50;58.90;;;;;;5034997;28;20195;-58
2022/12/05 01:44:14;;;;;;;14.80;9.80;;;9.50;58.90;;;;;;5035880;28;20208;-59
2022/12/05 01:46:46;;;;;;;15.30;10.23;;;9.50;59.20;;;;;;5043611;28;20443;-59
2022/12/05 01:49:26;;;;;;;13.97;10.03;;;9.60;59.00;;;;;;5047115;28;20219;-59
2022/12/05 01:52:01;;;;;;;16.33;11.70;;;9.60;58.80;;;;;;5036161;28;20452;-58
2022/12/05 01:54:27;;;;;;;13.57;9.70;;;9.60;58.90;;;;;;5040435;28;20813;-59
2022/12/05 01:56:59;;;;;;;16.33;9.67;;;9.50;59.00;;;;;;5031976;28;20594;-59
2022/12/05 01:59:27;;;;;;;15.50;10.40;;;9.40;59.30;;;;;;5030862;28;20439;-58
2022/12/05 02:01:53;;;;;;;14.83;10.70;;;9.50;59.30;;;;;;5033484;28;20436;-59
2022/12/05 02:04:19;;;;;;;16.10;9.97;;;9.50;59.30;;;;;;5038047;28;20957;-59
2022/12/05 02:06:45;;;;;;;15.03;10.33;;;9.50;59.30;;;;;;5033385;28;20569;-59
2022/12/05 02:09:11;;;;;;;14.80;9.23;;;9.60;59.30;;;;;;5042048;28;20185;-59
2022/12/05 02:11:55;;;;;;;19.37;11.13;;;9.60;59.20;;;;;;5041639;28;20434;-59
2022/12/05 02:14:30;;;;;;;15.63;10.60;;;9.60;59.00;;;;;;5035556;28;20439;-59
2022/12/05 02:17:32;;;;;;;14.70;10.60;;;9.50;59.10;;;;;;5036926;28;20439;-59
2022/12/05 02:20:11;;;;;;;15.00;10.33;;;9.50;59.60;;;;;;5036904;28;20455;-59
2022/12/05 02:22:43;;;;;;;12.83;8.97;;;9.50;59.70;;;;;;5044524;28;22419;-58
2022/12/05 02:25:38;;;;;;;16.63;10.60;;;9.50;59.40;;;;;;5046886;28;20577;-58
2022/12/05 02:28:34;;;;;;;12.87;9.93;;;9.60;59.40;;;;;;5037472;28;21143;-59
2022/12/05 02:31:11;;;;;;;14.90;10.23;;;9.60;59.30;;;;;;5049706;28;20450;-59
2022/12/05 02:33:49;;;;;;;15.10;9.87;;;9.50;59.20;;;;;;5040437;28;20578;-60
2022/12/05 02:36:24;;;;;;;15.70;10.50;;;9.50;59.50;;;;;;5041943;28;20482;-60
2022/12/05 02:39:01;;;;;;;14.00;9.60;;;9.50;59.50;;;;;;5051436;28;20441;-60
2022/12/05 02:41:32;;;;;;;13.80;9.70;;;9.50;59.80;;;;;;5053936;28;20431;-60
2022/12/05 02:44:27;;;;;;;13.67;9.50;;;9.50;59.80;;;;;;5053634;28;20442;-60
2022/12/05 02:46:54;;;;;;;12.77;8.70;;;9.50;59.70;;;;;;5049015;28;20501;-59
2022/12/05 02:49:29;;;;;;;13.50;8.73;;;9.60;59.80;;;;;;5053651;28;20418;-59
2022/12/05 02:51:57;;;;;;;13.90;9.17;;;9.60;59.70;;;;;;5053598;28;20503;-59
2022/12/05 02:54:30;;;;;;;13.67;8.37;;;9.60;59.50;;;;;;5053687;28;20430;-59
2022/12/05 02:56:58;;;;;;;16.23;10.47;;;9.60;59.40;;;;;;5053151;28;20434;-59
2022/12/05 02:59:24;;;;;;;13.70;9.57;;;9.60;59.40;;;;;;5059724;28;20921;-60
2022/12/05 03:01:50;;;;;;;17.17;11.23;;;9.40;59.70;;;;;;5052855;28;20530;-59
2022/12/05 03:04:18;;;;;;;14.10;9.63;;;9.40;59.80;;;;;;5050574;28;20571;-59
2022/12/05 03:07:06;;;;;;;17.67;10.30;;;9.30;60.00;;;;;;5051683;28;20442;-59
2022/12/05 03:09:40;;;;;;;14.50;9.53;;;9.40;60.00;;;;;;5040655;28;20439;-59
2022/12/05 03:12:14;;;;;;;12.90;9.47;;;9.50;59.90;;;;;;5047367;28;20447;-59
2022/12/05 03:14:46;;;;;;;18.63;10.47;;;9.60;59.70;;;;;;5039391;28;20573;-60
2022/12/05 03:17:20;;;;;;;15.23;10.40;;;9.70;59.70;;;;;;5048523;28;20445;-60
2022/12/05 03:20:03;;;;;;;16.50;10.40;;;9.70;59.70;;;;;;5054151;28;20450;-60
2022/12/05 03:22:48;;;;;;;16.10;9.77;;;9.70;60.20;;;;;;5043477;28;20476;-60
2022/12/05 03:25:15;;;;;;;19.33;10.10;;;9.80;59.60;;;;;;5044054;28;20474;-59
2022/12/05 03:27:52;;;;;;;15.20;10.17;;;9.70;59.50;;;;;;5051850;28;20435;-60
2022/12/05 03:30:20;;;;;;;15.90;9.60;;;9.80;59.50;;;;;;5051005;28;20434;-59
2022/12/05 03:33:07;;;;;;;16.20;9.67;;;9.80;59.40;;;;;;5058274;28;20439;-59
2022/12/05 03:35:50;;;;;;;15.90;10.17;;;9.80;59.40;;;;;;5038619;28;20440;-59
2022/12/05 03:38:44;;;;;;;17.17;10.10;;;9.80;59.30;;;;;;5047385;28;20763;-60
2022/12/05 03:41:22;;;;;;;13.23;10.00;;;9.70;59.30;;;;;;5048663;28;20475;-59
2022/12/05 03:43:50;;;;;;;14.60;8.90;;;9.70;59.30;;;;;;5054313;28;20445;-59
2022/12/05 03:46:35;;;;;;;16.97;10.73;;;9.80;59.40;;;;;;5046816;28;20521;-59
2022/12/05 03:49:12;;;;;;;13.90;9.90;;;9.80;59.50;;;;;;5051978;28;20443;-59
2022/12/05 03:51:46;;;;;;;15.93;9.80;;;9.80;59.40;;;;;;5048443;28;20442;-59
2022/12/05 03:54:19;;;;;;;17.40;9.17;;;9.80;59.20;;;;;;5048999;28;20551;-60
2022/12/05 03:56:49;;;;;;;18.03;9.67;;;9.80;59.60;;;;;;5034651;28;20485;-59
2022/12/05 03:59:21;;;;;;;15.20;9.90;;;9.80;59.50;;;;;;5050831;28;20439;-60
2022/12/05 04:01:49;;;;;;;13.63;9.57;;;9.70;59.20;;;;;;5046599;28;21064;-59
2022/12/05 04:04:21;;;;;;;14.40;9.00;;;9.40;60.30;;;;;;5045285;28;20455;-60
2022/12/05 04:06:50;;;;;;;17.33;9.80;;;9.50;60.90;;;;;;5055199;28;20443;-60
2022/12/05 04:09:30;;;;;;;16.27;10.63;;;9.60;60.60;;;;;;5035827;28;20436;-60
2022/12/05 04:12:09;;;;;;;14.63;9.70;;;9.70;60.40;;;;;;5046246;28;20446;-60
2022/12/05 04:14:42;;;;;;;17.53;9.63;;;9.70;60.20;;;;;;5053721;28;20454;-59
2022/12/05 04:17:35;;;;;;;13.37;9.33;;;9.70;60.00;;;;;;5050495;28;20435;-61
2022/12/05 04:22:57;;;;;;;14.93;9.30;;;9.70;60.00;;;;;;5047744;28;20493;-58
2022/12/05 04:25:33;;;;;;;14.60;10.10;;;9.80;60.00;;;;;;5040892;28;20490;-58
2022/12/05 04:28:19;;;;;;;16.60;11.37;;;9.80;59.80;;;;;;5050135;28;20454;-58
2022/12/05 04:30:58;;;;;;;13.93;9.33;;;9.90;59.90;;;;;;5060338;28;20468;-58
2022/12/05 04:33:43;;;;;;;16.83;10.33;;;9.90;59.80;;;;;;5050832;28;20840;-58
2022/12/05 04:36:21;;;;;;;15.07;10.17;;;9.90;59.80;;;;;;5038460;28;20543;-58
2022/12/05 04:38:53;;;;;;;14.83;9.30;;;9.90;59.80;;;;;;5036188;28;20531;-58
2022/12/05 04:41:24;;;;;;;14.00;10.07;;;10.00;59.50;;;;;;5045828;28;20447;-58
2022/12/05 04:43:53;;;;;;;17.80;10.77;;;10.00;58.80;;;;;;5040717;28;20448;-58
2022/12/05 04:46:21;;;;;;;16.40;10.80;;;10.00;58.90;;;;;;5049409;28;20486;-58
2022/12/05 04:48:52;;;;;;;13.93;9.20;;;10.00;59.10;;;;;;5049171;28;20436;-58
2022/12/05 04:51:23;;;;;;;16.00;9.97;;;10.00;59.30;;;;;;5035078;28;20808;-58
2022/12/05 04:53:53;;;;;;;15.70;9.77;;;10.00;59.20;;;;;;5037799;28;20447;-58
2022/12/05 04:56:23;;;;;;;16.47;10.23;;;10.00;59.30;;;;;;5036167;28;20442;-59
2022/12/05 04:58:49;;;;;;;13.00;9.17;;;10.00;59.30;;;;;;5032374;28;20556;-59
2022/12/05 05:01:33;;;;;;;16.00;10.40;;;10.00;59.40;;;;;;5034564;28;20555;-58
2022/12/05 05:04:07;;;;;;;13.10;9.20;;;10.00;59.40;;;;;;5031742;28;20208;-58
2022/12/05 05:06:35;;;;;;;12.07;8.90;;;10.10;59.40;;;;;;5032725;28;21017;-58
2022/12/05 05:09:00;;;;;;;15.07;10.07;;;10.00;59.30;;;;;;5043634;28;20443;-58
2022/12/05 05:11:29;;;;;;;16.70;10.30;;;10.10;59.50;;;;;;5042327;28;20439;-58
2022/12/05 05:13:55;;;;;;;13.77;10.30;;;10.00;59.60;;;;;;5037559;28;20201;-59
2022/12/05 05:16:23;;;;;;;15.07;9.97;;;10.00;59.70;;;;;;5042023;28;21003;-58
2022/12/05 05:18:49;;;;;;;16.30;10.10;;;10.10;59.60;;;;;;5041451;28;20455;-59
2022/12/05 05:21:40;;;;;;;14.87;9.90;;;10.10;59.60;;;;;;5032691;28;20431;-58
2022/12/05 05:24:06;;;;;;;14.23;9.27;;;9.90;60.60;;;;;;5040053;28;20568;-59
2022/12/05 05:26:38;;;;;;;16.17;10.07;;;10.00;59.50;;;;;;5039829;28;20533;-59
2022/12/05 05:29:04;;;;;;;16.23;10.10;;;10.00;59.50;;;;;;5043424;28;21025;-59
2022/12/05 05:31:30;;;;;;;15.10;10.63;;;9.90;60.30;;;;;;5041416;28;20797;-58
2022/12/05 05:33:56;;;;;;;14.20;10.20;;;9.90;60.70;;;;;;5043440;28;20465;-58
2022/12/05 05:36:24;;;;;;;12.87;8.97;;;9.70;61.00;;;;;;5042426;28;20444;-58
2022/12/05 05:38:53;;;;;;;16.43;10.23;;;9.70;61.50;;;;;;5034774;28;20434;-58
2022/12/05 05:41:24;;;;;;;13.83;10.27;;;9.60;61.30;;;;;;5033996;28;20435;-58
2022/12/05 05:43:51;;;;;;;14.80;9.63;;;9.50;61.80;;;;;;5037733;28;20431;-58
2022/12/05 05:46:18;;;;;;;18.00;10.63;;;9.60;62.70;;;;;;5038160;28;20484;-58
2022/12/05 05:48:44;;;;;;;16.70;9.57;;;9.50;61.80;;;;;;5033590;28;20972;-58
2022/12/05 05:51:12;;;;;;;14.20;8.80;;;9.40;62.30;;;;;;5037616;28;20443;-58
2022/12/05 05:53:38;;;;;;;13.80;9.30;;;9.40;63.50;;;;;;5042356;28;20239;-59
2022/12/05 05:56:09;;;;;;;15.80;10.33;;;9.50;62.70;;;;;;5041117;28;20820;-58
2022/12/05 05:58:35;;;;;;;12.37;9.03;;;9.70;62.10;;;;;;5047763;28;20447;-58
2022/12/05 06:01:07;;;;;;;14.60;10.40;;;9.80;61.70;;;;;;5047003;28;20457;-59
2022/12/05 06:03:33;;;;;;;13.30;10.70;;;9.90;61.30;;;;;;5040950;28;20268;-58
2022/12/05 06:06:02;;;;;;;14.20;10.33;;;9.80;61.40;;;;;;5044681;28;20548;-62
2022/12/05 06:08:33;;;;;;;18.67;10.90;;;9.90;61.50;;;;;;5036116;28;21417;-58
2022/12/05 06:10:58;;;;;;;17.27;11.63;;;9.90;61.10;;;;;;5042433;28;20950;-58
2022/12/05 06:13:24;;;;;;;20.47;13.00;;;9.90;61.10;;;;;;5038329;28;20505;-58
2022/12/05 06:15:50;;;;;;;16.87;11.40;;;9.90;61.30;;;;;;5040458;28;20242;-58
2022/12/05 06:18:16;;;;;;;15.57;10.30;;;10.00;60.00;;;;;;5037639;28;20185;-58
2022/12/05 06:20:41;;;;;;;19.07;11.57;;;10.00;59.80;;;;;;5039306;28;20446;-58
2022/12/05 06:23:07;;;;;;;15.20;10.00;;;10.00;59.80;;;;;;5049677;28;20566;-60
2022/12/05 06:25:32;;;;;;;18.80;10.87;;;9.90;60.70;;;;;;5042762;28;20224;-60
2022/12/05 06:27:58;;;;;;;13.43;9.97;;;9.90;60.80;;;;;;5040810;28;20229;-58
2022/12/05 06:30:24;;;;;;;12.90;8.00;;;9.90;60.90;;;;;;5036369;28;20196;-59
2022/12/05 06:32:49;;;;;;;24.30;9.50;;;10.00;61.60;;;;;;5039953;28;20189;-58
2022/12/05 06:35:15;;;;;;;17.33;10.60;;;10.20;64.10;;;;;;5047636;28;20266;-58
2022/12/05 06:37:44;;;;;;;15.20;10.13;;;10.30;61.90;;;;;;5047004;28;20192;-58
2022/12/05 06:40:13;;;;;;;13.70;9.70;;;10.20;61.70;;;;;;5052534;28;20593;-58
2022/12/05 06:42:38;;;;;;;18.23;9.33;;;10.20;62.60;;;;;;5051815;28;20533;-59
2022/12/05 06:45:05;;;;;;;19.60;12.50;;;10.20;62.00;;;;;;5056355;28;20631;-58
2022/12/05 06:47:31;;;;;;;19.23;11.90;;;10.30;61.10;;;;;;5050253;28;20262;-58
2022/12/05 06:49:57;;;;;;;18.83;12.60;;;10.30;61.10;;;;;;5051225;28;21260;-58
2022/12/05 06:52:22;;;;;;;22.27;13.33;;;10.30;60.80;;;;;;5050652;28;20222;-58
2022/12/05 06:54:48;;;;;;;15.23;11.87;;;10.40;60.20;;;;;;5053733;28;20192;-58
2022/12/05 06:57:13;;;;;;;15.47;11.27;;;10.50;59.90;;;;;;5045401;28;20185;-58
2022/12/05 06:59:39;;;;;;;17.03;11.93;;;10.70;59.80;;;;;;5049820;28;20219;-58
2022/12/05 07:02:07;;;;;;;17.83;11.10;;;10.80;59.50;;;;;;5049089;28;20193;-58
2022/12/05 07:04:33;;;;;;;15.60;11.27;;;10.90;58.80;;;;;;5046141;28;20277;-58
2022/12/05 07:07:00;;;;;;;18.73;11.37;;;11.10;58.50;;;;;;5043489;28;20436;-58
2022/12/05 07:09:47;;;;;;;17.17;11.60;;;11.30;58.00;;;;;;5047781;28;20451;-58
2022/12/05 07:12:15;;;;;;;13.83;10.63;;;11.40;57.50;;;;;;5048746;28;20486;-58
2022/12/05 07:14:41;;;;;;;14.73;10.97;;;11.40;57.80;;;;;;5045323;28;20440;-58
2022/12/05 07:17:07;;;;;;;16.73;10.77;;;11.50;57.80;;;;;;5048800;28;20467;-58
2022/12/05 07:19:33;;;;;;;13.53;9.73;;;11.30;56.90;;;;;;5043793;28;20511;-58
2022/12/05 07:21:59;;;;;;;16.10;11.07;;;10.90;58.00;;;;;;5046730;28;20570;-58
2022/12/05 07:24:24;;;;;;;14.53;9.50;;;11.00;58.30;;;;;;5036416;28;20314;-59
2022/12/05 07:26:50;;;;;;;17.87;11.73;;;11.10;58.30;;;;;;5039179;28;20340;-58
2022/12/05 07:29:15;;;;;;;15.53;10.63;;;11.10;58.00;;;;;;5038992;28;20201;-58
2022/12/05 07:31:41;;;;;;;15.97;11.20;;;11.20;57.90;;;;;;5046256;28;20231;-58
2022/12/05 07:34:07;;;;;;;15.07;10.53;;;11.20;57.50;;;;;;5046925;28;20197;-58
2022/12/05 07:36:33;;;;;;;16.43;11.60;;;11.10;57.80;;;;;;5039213;28;20221;-58
2022/12/05 07:38:58;;;;;;;13.37;9.80;;;11.30;58.10;;;;;;5043825;28;20185;-58
2022/12/05 07:41:28;;;;;;;13.13;9.30;;;11.50;58.00;;;;;;5041600;28;20453;-59
2022/12/05 07:43:55;;;;;;;12.53;8.87;;;11.70;57.70;;;;;;5050282;28;20188;-58
2022/12/05 07:46:21;;;;;;;13.20;9.70;;;11.80;57.40;;;;;;5051632;28;20576;-58
2022/12/05 07:48:47;;;;;;;12.40;9.47;;;11.70;56.80;;;;;;5051590;28;20431;-59
2022/12/05 07:51:13;;;;;;;15.67;9.80;;;11.50;56.90;;;;;;5049233;28;20454;-59
2022/12/05 07:53:41;;;;;;;13.77;10.50;;;11.60;57.20;;;;;;5045493;28;20935;-58
2022/12/05 07:56:08;;;;;;;15.47;10.60;;;11.40;57.20;;;;;;5042372;28;20661;-58
2022/12/05 07:58:34;;;;;;;15.70;10.60;;;11.40;57.50;;;;;;5051184;28;20439;-59
2022/12/05 08:01:17;;;;;;;13.70;9.80;;;11.40;57.60;;;;;;5049872;28;20435;-58
2022/12/05 08:03:44;;;;;;;13.60;8.83;;;11.30;57.50;;;;;;5052548;28;20434;-58
2022/12/05 08:06:15;;;;;;;12.77;8.93;;;11.20;57.70;;;;;;5048260;28;20489;-59
2022/12/05 08:08:41;;;;;;;14.30;10.10;;;11.00;57.60;;;;;;5050144;28;20427;-58
2022/12/05 08:11:10;;;;;;;12.47;8.73;;;11.00;57.90;;;;;;5047905;28;20446;-59
2022/12/05 08:13:36;;;;;;;13.40;9.10;;;11.10;58.20;;;;;;5048840;28;20443;-58
2022/12/05 08:16:03;;;;;;;11.63;8.83;;;11.10;58.10;;;;;;5049500;28;21000;-58
2022/12/05 08:18:30;;;;;;;13.43;9.23;;;11.00;57.90;;;;;;5046907;28;20849;-58
2022/12/05 08:21:04;;;;;;;12.80;10.10;;;10.80;58.50;;;;;;5049259;28;20825;-59
2022/12/05 08:23:31;;;;;;;18.00;11.57;;;11.00;58.50;;;;;;5048672;28;20475;-58
2022/12/05 08:26:04;;;;;;;15.40;11.80;;;11.00;58.20;;;;;;5052052;28;20490;-59
2022/12/05 08:28:30;;;;;;;18.03;11.97;;;11.00;58.60;;;;;;5049836;28;20447;-58
2022/12/05 08:31:06;;;;;;;14.57;10.33;;;11.20;58.50;;;;;;5049899;28;20415;-58
2022/12/05 08:33:32;;;;;;;16.40;11.40;;;11.30;57.90;;;;;;5047829;28;20937;-58
2022/12/05 08:36:01;;;;;;;13.43;8.80;;;11.20;57.60;;;;;;5039836;28;20554;-58
2022/12/05 08:38:26;;;;;;;14.13;9.03;;;11.10;58.00;;;;;;5048326;28;20199;-59
2022/12/05 08:40:52;;;;;;;13.70;8.63;;;11.20;57.80;;;;;;5050278;28;20525;-59
2022/12/05 08:43:17;;;;;;;11.83;9.13;;;11.30;57.90;;;;;;5045830;28;20253;-58
2022/12/05 08:45:53;;;;;;;11.60;8.87;;;11.30;57.70;;;;;;5043767;28;20219;-59
2022/12/05 08:48:18;;;;;;;11.63;8.67;;;11.50;57.30;;;;;;5050318;28;20196;-58
2022/12/05 08:50:44;;;;;;;12.83;9.37;;;11.50;57.00;;;;;;5049890;28;20434;-58
2022/12/05 08:53:09;;;;;;;13.93;9.67;;;11.40;57.40;;;;;;5047440;28;20188;-58
2022/12/05 08:55:35;;;;;;;14.27;9.13;;;11.50;57.30;;;;;;5049310;28;20201;-58
2022/12/05 08:58:01;;;;;;;13.30;9.63;;;11.50;57.20;;;;;;5047164;28;20193;-58
2022/12/05 09:00:26;;;;;;;12.03;8.20;;;11.70;57.10;;;;;;5046516;28;20197;-58
2022/12/05 09:02:52;;;;;;;10.63;7.73;;;11.90;56.70;;;;;;5039535;28;20189;-59
2022/12/05 09:05:18;;;;;;;11.23;8.93;;;12.00;56.40;;;;;;5043198;28;20236;-58
2022/12/05 09:07:43;;;;;;;12.10;7.80;;;12.20;56.30;;;;;;5046998;28;20197;-59
2022/12/05 09:10:09;;;;;;;12.50;8.60;;;12.30;55.90;;;;;;5049793;28;20195;-59
2022/12/05 09:12:36;;;;;;;13.00;8.37;;;12.30;55.60;;;;;;5038873;28;21871;-58
2022/12/05 09:15:02;;;;;;;9.90;7.73;;;12.20;55.00;;;;;;5034656;28;20444;-58
2022/12/05 09:17:28;;;;;;;13.37;9.60;;;12.10;55.70;;;;;;5037429;28;20456;-58
2022/12/05 09:19:54;;;;;;;11.20;8.37;;;12.20;55.90;;;;;;5043732;28;20797;-58
2022/12/05 09:22:21;;;;;;;10.47;7.93;;;12.30;56.00;;;;;;5041915;28;20212;-59
2022/12/05 09:24:47;;;;;;;10.07;8.00;;;12.40;56.00;;;;;;5037813;28;20638;-58
2022/12/05 09:27:13;;;;;;;9.77;7.53;;;12.40;55.40;;;;;;5041431;28;20846;-58
2022/12/05 09:29:38;;;;;;;10.67;8.20;;;12.40;55.90;;;;;;5035894;28;20443;-59
2022/12/05 09:32:04;;;;;;;11.70;8.00;;;12.20;55.60;;;;;;5036935;28;20768;-58
2022/12/05 09:34:30;;;;;;;11.47;8.17;;;12.20;56.20;;;;;;5046511;28;20192;-58
2022/12/05 09:36:56;;;;;;;10.90;8.23;;;12.30;56.40;;;;;;5034026;28;20470;-59
2022/12/05 09:39:23;;;;;;;10.50;8.67;;;12.10;55.70;;;;;;5034707;28;20192;-58
2022/12/05 09:42:26;;;;;;;11.10;8.77;;;12.10;56.50;;;;;;5035202;28;20435;-58
2022/12/05 09:45:14;;;;;;;9.73;7.83;;;12.10;56.20;;;;;;5044909;28;20471;-58
2022/12/05 09:47:50;;;;;;;9.93;7.40;;;11.60;57.20;;;;;;5038813;28;20447;-58
2022/12/05 09:50:33;;;;;;;12.70;8.20;;;11.70;57.60;;;;;;5036984;28;20447;-58
2022/12/05 09:53:13;;;;;;;9.77;6.60;;;11.90;57.00;;;;;;5042704;28;20454;-58
2022/12/05 09:55:51;;;;;;;9.83;7.40;;;12.10;56.90;;;;;;5038245;28;20431;-58
2022/12/05 09:58:31;;;;;;;8.60;6.90;;;12.20;56.20;;;;;;5045992;28;20439;-58
2022/12/05 10:01:21;;;;;;;8.03;6.87;;;12.40;56.20;;;;;;5043023;28;20507;-58
2022/12/05 10:04:26;;;;;;;10.00;8.03;;;12.50;55.60;;;;;;5046283;28;20443;-58
2022/12/05 10:07:13;;;;;;;10.50;7.83;;;12.50;55.60;;;;;;5039936;28;20817;-57
2022/12/05 10:09:59;;;;;;;14.00;8.87;;;12.60;55.80;;;;;;5033277;28;20907;-59
2022/12/05 10:12:36;;;;;;;10.97;7.70;;;12.50;55.70;;;;;;5045177;28;20450;-59
2022/12/05 10:15:31;;;;;;;11.60;7.97;;;12.40;55.80;;;;;;5047583;28;21010;-59
2022/12/05 10:18:21;;;;;;;8.90;6.70;;;12.50;55.70;;;;;;5044246;28;20451;-58
2022/12/05 10:20:54;;;;;;;9.13;7.20;;;12.60;55.70;;;;;;5047060;28;20457;-58
2022/12/05 10:23:54;;;;;;;8.80;7.00;;;12.70;55.50;;;;;;5038730;28;20996;-58
2022/12/05 10:26:22;;;;;;;10.37;7.80;;;12.70;55.30;;;;;;5040072;28;20522;-58
2022/12/05 10:29:16;;;;;;;8.63;6.47;;;12.80;55.10;;;;;;5040893;28;20431;-58
2022/12/05 10:31:44;;;;;;;9.23;6.90;;;12.90;55.00;;;;;;5028927;28;20941;-58
2022/12/05 10:34:28;;;;;;;9.10;6.47;;;13.00;54.70;;;;;;5036631;28;20451;-58
2022/12/05 10:37:18;;;;;;;9.80;6.90;;;13.00;55.00;;;;;;5047770;28;21039;-58
2022/12/05 10:39:46;;;;;;;9.77;6.80;;;13.10;54.60;;;;;;5040110;28;20439;-58
2022/12/05 10:42:18;;;;;;;7.47;6.67;;;13.20;54.70;;;;;;5050468;28;20442;-58
2022/12/05 10:44:44;;;;;;;8.07;6.63;;;13.30;54.60;;;;;;5037757;28;20511;-59
2022/12/05 10:47:11;;;;;;;9.50;6.90;;;13.30;54.10;;;;;;5036221;28;20435;-59
2022/12/05 10:49:38;;;;;;;8.07;6.83;;;13.40;54.00;;;;;;5051486;28;20197;-59
2022/12/05 10:52:04;;;;;;;7.47;6.30;;;13.30;53.80;;;;;;5045265;28;20455;-59
2022/12/05 10:54:35;;;;;;;8.60;7.20;;;13.40;53.90;;;;;;5039231;28;22266;-59
2022/12/05 10:57:20;;;;;;;7.53;6.47;;;13.40;53.90;;;;;;5046494;28;20814;-59
2022/12/05 10:59:46;;;;;;;9.00;6.80;;;13.40;54.20;;;;;;5042229;28;20439;-59
2022/12/05 11:02:30;;;;;;;8.07;6.53;;;13.40;54.60;;;;;;5050857;28;20431;-59
2022/12/05 11:04:57;;;;;;;8.97;6.63;;;13.50;54.60;;;;;;5043593;28;20901;-59
2022/12/05 11:07:34;;;;;;;7.77;6.97;;;13.50;54.30;;;;;;5050396;28;20486;-59
2022/12/05 11:10:02;;;;;;;7.10;5.87;;;13.50;54.30;;;;;;5049886;28;20558;-59
2022/12/05 11:12:32;;;;;;;7.43;6.50;;;13.60;54.20;;;;;;5047541;28;20444;-59
2022/12/05 11:15:10;;;;;;;12.23;10.13;;;13.60;54.30;;;;;;5050370;28;20492;-59
2022/12/05 11:17:38;;;;;;;8.40;6.43;;;13.60;54.60;;;;;;5050632;28;20451;-59
2022/12/05 11:20:19;;;;;;;13.57;8.97;;;13.60;54.50;;;;;;5048917;28;20848;-59
2022/12/05 11:22:45;;;;;;;9.77;8.77;;;13.70;54.90;;;;;;5046286;28;20486;-59
2022/12/05 11:25:23;;;;;;;8.37;7.47;;;13.70;55.20;;;;;;5042997;28;20478;-59
2022/12/05 11:27:48;;;;;;;9.40;6.83;;;13.70;55.20;;;;;;5045745;28;20496;-59
2022/12/05 11:30:18;;;;;;;10.83;6.97;;;13.80;55.20;;;;;;5035094;28;20451;-59
2022/12/05 11:32:43;;;;;;;9.20;6.83;;;13.80;55.30;;;;;;5042161;28;20192;-59
2022/12/05 11:35:12;;;;;;;8.53;7.10;;;13.80;55.30;;;;;;5041331;28;20476;-59
2022/12/05 11:37:47;;;;;;;9.73;7.90;;;13.80;55.70;;;;;;5035092;28;20268;-59
2022/12/05 11:40:26;;;;;;;9.87;8.33;;;13.80;56.00;;;;;;5047122;28;20441;-59
2022/12/05 11:43:13;;;;;;;13.67;10.03;;;13.90;55.90;;;;;;5042298;28;20934;-59
2022/12/05 11:46:07;;;;;;;10.07;7.63;;;13.80;55.70;;;;;;5038770;28;20491;-59
2022/12/05 11:48:49;;;;;;;12.27;9.40;;;13.80;55.50;;;;;;5050145;28;20443;-59
2022/12/05 11:51:26;;;;;;;11.53;7.77;;;13.70;55.70;;;;;;5047206;28;20434;-59
2022/12/05 11:53:54;;;;;;;10.90;8.33;;;13.60;56.00;;;;;;5044778;28;20934;-59
2022/12/05 11:56:37;;;;;;;10.23;7.80;;;13.60;56.00;;;;;;5047705;28;20443;-59
2022/12/05 11:59:40;;;;;;;14.30;10.30;;;13.50;56.00;;;;;;5045871;28;20539;-59
2022/12/05 12:02:56;;;;;;;21.07;14.83;;;13.50;56.40;;;;;;5038720;28;20541;-59
2022/12/05 12:05:30;;;;;;;24.57;16.83;;;13.40;56.00;;;;;;5016063;28;20498;-59
2022/12/05 12:08:04;;;;;;;22.90;16.17;;;13.30;56.10;;;;;;5041371;28;20501;-59
2022/12/05 12:10:42;;;;;;;13.73;11.33;;;13.30;56.50;;;;;;5040116;28;20446;-59
2022/12/05 12:13:20;;;;;;;10.97;9.20;;;13.30;56.80;;;;;;5043664;28;20531;-59
2022/12/05 12:16:07;;;;;;;11.60;9.80;;;13.30;57.10;;;;;;5050393;28;20845;-59
2022/12/05 12:19:11;;;;;;;11.17;9.97;;;13.30;57.50;;;;;;5046925;28;20930;-59
2022/12/05 12:22:17;;;;;;;13.80;10.40;;;13.30;57.10;;;;;;5045885;28;20596;-58
2022/12/05 12:25:02;;;;;;;15.20;10.00;;;13.20;57.10;;;;;;5040029;28;20452;-58
2022/12/05 12:27:28;;;;;;;9.93;8.10;;;13.30;57.10;;;;;;5041299;28;20478;-59
2022/12/05 12:29:59;;;;;;;12.83;9.90;;;13.30;56.90;;;;;;5042426;28;20486;-59
2022/12/05 12:32:36;;;;;;;13.50;10.23;;;13.30;56.90;;;;;;5043314;28;20204;-58
2022/12/05 12:35:26;;;;;;;13.53;10.87;;;13.30;56.70;;;;;;5048407;28;20566;-59
2022/12/05 12:38:00;;;;;;;12.97;10.33;;;13.30;56.90;;;;;;5038322;28;20435;-59
2022/12/05 12:40:49;;;;;;;9.47;8.50;;;13.30;57.00;;;;;;5047908;28;20814;-59
2022/12/05 12:43:32;;;;;;;14.37;8.27;;;13.30;57.10;;;;;;5040143;28;20454;-59
2022/12/05 12:46:30;;;;;;;10.03;8.10;;;13.30;56.90;;;;;;5049216;28;20482;-59
2022/12/05 12:49:14;;;;;;;9.83;8.17;;;13.30;57.00;;;;;;5051782;28;20436;-59
2022/12/05 12:52:00;;;;;;;9.67;7.73;;;13.30;57.20;;;;;;5039595;28;20990;-59
2022/12/05 12:54:48;;;;;;;10.60;8.20;;;13.30;56.70;;;;;;5050311;28;20953;-59
2022/12/05 12:57:21;;;;;;;9.33;7.80;;;13.30;56.60;;;;;;5048858;28;20433;-59
2022/12/05 12:59:57;;;;;;;13.57;9.47;;;13.30;56.60;;;;;;5051007;28;20430;-59
2022/12/05 13:02:41;;;;;;;9.20;8.10;;;13.20;56.60;;;;;;5049382;28;20422;-59
2022/12/05 13:05:31;;;;;;;13.10;8.90;;;13.20;56.40;;;;;;5051711;28;20482;-59
2022/12/05 13:08:06;;;;;;;11.33;8.13;;;13.20;56.70;;;;;;5051445;28;20961;-58